createdAt,value
2023-04-03T00:01:12.791Z,6.14
2023-04-03T00:03:39.675Z,6.08
2023-04-03T00:06:10.902Z,6.11
2023-04-03T00:08:37.951Z,6.07
2023-04-03T00:11:07.419Z,6.06
2023-04-03T00:13:34.780Z,6.03
2023-04-03T00:16:01.814Z,6.01
2023-04-03T00:18:28.705Z,5.93
2023-04-03T00:20:57.794Z,6.03
2023-04-03T00:23:27.223Z,6.03
2023-04-03T00:25:54.384Z,6.03
2023-04-03T00:28:23.367Z,6.00
2023-04-03T00:30:51.618Z,5.96
2023-04-03T00:33:22.981Z,5.94
2023-04-03T00:35:50.655Z,5.90
2023-04-03T00:38:17.908Z,5.87
2023-04-03T00:40:47.321Z,5.83
2023-04-03T00:43:19.762Z,5.87
2023-04-03T00:45:52.354Z,5.83
2023-04-03T00:48:24.107Z,5.80
2023-04-03T00:50:51.803Z,5.76
2023-04-03T00:53:24.020Z,5.73
2023-04-03T00:55:52.283Z,5.50
2023-04-03T00:58:24.098Z,5.69
2023-04-03T01:00:58.588Z,5.67
2023-04-03T01:03:27.853Z,5.62
2023-04-03T01:05:54.457Z,5.55
2023-04-03T01:08:21.349Z,5.63
2023-04-03T01:10:50.678Z,5.55
2023-04-03T01:13:27.193Z,5.55
2023-04-03T01:15:54.627Z,5.53
2023-04-03T01:18:22.984Z,5.51
2023-04-03T01:21:19.729Z,5.48
2023-04-03T01:23:49.340Z,5.45
2023-04-03T01:26:18.777Z,5.43
2023-04-03T01:28:45.561Z,5.41
2023-04-03T01:31:21.333Z,5.39
2023-04-03T01:33:50.191Z,5.25
2023-04-03T01:36:23.437Z,5.33
2023-04-03T01:38:50.125Z,5.17
2023-04-03T01:41:17.069Z,5.29
2023-04-03T01:43:44.527Z,5.32
2023-04-03T01:46:11.498Z,5.33
2023-04-03T01:48:38.332Z,5.31
2023-04-03T01:51:07.648Z,5.13
2023-04-03T01:53:34.529Z,5.14
2023-04-03T01:56:01.268Z,5.29
2023-04-03T01:58:30.232Z,5.27
2023-04-03T02:00:59.453Z,5.24
2023-04-03T02:03:28.821Z,5.19
2023-04-03T02:05:55.610Z,5.11
2023-04-03T02:08:22.563Z,5.14
2023-04-03T02:10:50.463Z,5.13
2023-04-03T02:13:17.969Z,5.05
2023-04-03T02:15:44.591Z,4.82
2023-04-03T02:18:13.473Z,4.99
2023-04-03T02:20:40.293Z,4.95
2023-04-03T02:23:07.374Z,4.88
2023-04-03T02:25:38.576Z,4.91
2023-04-03T02:28:08.350Z,4.87
2023-04-03T02:30:35.544Z,4.87
2023-04-03T02:33:04.431Z,4.85
2023-04-03T02:35:31.186Z,4.79
2023-04-03T02:37:57.817Z,4.73
2023-04-03T02:40:24.475Z,4.67
2023-04-03T02:42:53.275Z,4.58
2023-04-03T02:45:22.251Z,4.64
2023-04-03T02:47:48.981Z,4.61
2023-04-03T02:50:15.668Z,4.52
2023-04-03T02:52:42.283Z,4.53
2023-04-03T02:55:09.099Z,4.50
2023-04-03T02:57:36.381Z,4.44
2023-04-03T03:00:04.280Z,4.23
2023-04-03T03:02:30.970Z,4.37
2023-04-03T03:05:02.494Z,4.34
2023-04-03T03:07:29.264Z,4.32
2023-04-03T03:09:55.920Z,4.28
2023-04-03T03:12:22.944Z,4.27
2023-04-03T03:14:49.740Z,4.21
2023-04-03T03:17:16.645Z,4.22
2023-04-03T03:19:43.411Z,4.19
2023-04-03T03:22:10.120Z,4.20
2023-04-03T03:24:38.892Z,4.11
2023-04-03T03:27:05.468Z,4.18
2023-04-03T03:29:32.077Z,4.05
2023-04-03T03:32:01.009Z,4.21
2023-04-03T03:34:27.570Z,4.02
2023-04-03T03:36:56.428Z,4.20
2023-04-03T03:39:23.101Z,4.20
2023-04-03T03:41:51.844Z,4.22
2023-04-03T03:44:18.512Z,4.07
2023-04-03T03:46:47.337Z,4.22
2023-04-03T03:49:14.080Z,4.20
2023-04-03T03:51:43.708Z,4.01
2023-04-03T03:54:13.104Z,4.21
2023-04-03T03:56:39.944Z,4.22
2023-04-03T03:59:10.017Z,4.16
2023-04-03T04:01:38.948Z,4.21
2023-04-03T04:04:07.900Z,4.18
2023-04-03T04:06:34.648Z,4.24
2023-04-03T04:09:03.638Z,3.94
2023-04-03T04:11:33.519Z,4.25
2023-04-03T04:14:00.125Z,4.14
2023-04-03T04:16:26.745Z,4.13
2023-04-03T04:18:55.624Z,4.04
2023-04-03T04:21:22.266Z,4.12
2023-04-03T04:23:48.954Z,4.32
2023-04-03T04:26:15.653Z,4.00
2023-04-03T04:28:45.422Z,4.35
2023-04-03T04:31:12.215Z,4.17
2023-04-03T04:33:38.880Z,4.31
2023-04-03T04:36:05.705Z,4.36
2023-04-03T04:38:32.360Z,4.40
2023-04-03T04:40:59.051Z,4.41
2023-04-03T04:43:25.898Z,4.38
2023-04-03T04:46:05.657Z,4.06
2023-04-03T04:48:32.923Z,4.01
2023-04-03T04:51:02.257Z,4.43
2023-04-03T04:53:28.998Z,3.76
2023-04-03T04:55:55.717Z,4.38
2023-04-03T04:58:22.854Z,4.38
2023-04-03T05:00:51.660Z,4.34
2023-04-03T05:03:18.317Z,4.49
2023-04-03T05:05:45.018Z,4.03
2023-04-03T05:08:11.644Z,3.86
2023-04-03T05:10:38.255Z,4.47
2023-04-03T05:13:04.926Z,4.33
2023-04-03T05:15:31.518Z,4.33
2023-04-03T05:18:00.751Z,4.41
2023-04-03T05:20:27.385Z,4.39
2023-04-03T05:22:57.003Z,4.36
2023-04-03T05:25:27.119Z,4.32
2023-04-03T05:27:56.115Z,4.33
2023-04-03T05:30:25.591Z,4.19
2023-04-03T05:32:52.253Z,4.23
2023-04-03T05:35:18.895Z,4.31
2023-04-03T05:37:45.710Z,4.33
2023-04-03T05:40:12.684Z,4.35
2023-04-03T05:42:41.824Z,4.37
2023-04-03T05:45:08.705Z,4.35
2023-04-03T05:47:35.468Z,4.42
2023-04-03T05:50:04.923Z,4.43
2023-04-03T05:52:38.558Z,4.44
2023-04-03T05:55:05.816Z,4.47
2023-04-03T05:57:32.514Z,4.46
2023-04-03T05:59:59.138Z,4.49
2023-04-03T06:02:26.981Z,4.51
2023-04-03T06:04:56.508Z,4.57
2023-04-03T06:07:29.299Z,4.62
2023-04-03T06:09:57.579Z,4.56
2023-04-03T06:12:24.403Z,4.71
2023-04-03T06:14:55.992Z,4.79
2023-04-03T06:17:25.190Z,4.79
2023-04-03T06:19:52.141Z,4.79
2023-04-03T06:22:18.813Z,4.79
2023-04-03T06:24:48.024Z,4.75
2023-04-03T06:27:14.825Z,4.95
2023-04-03T06:29:41.546Z,5.00
2023-04-03T06:32:10.944Z,4.94
2023-04-03T06:34:38.043Z,5.10
2023-04-03T06:37:06.993Z,5.12
2023-04-03T06:39:35.965Z,5.17
2023-04-03T06:42:02.743Z,5.24
2023-04-03T06:44:29.401Z,5.33
2023-04-03T06:46:56.262Z,5.32
2023-04-03T06:49:22.885Z,5.46
2023-04-03T06:51:49.729Z,5.57
2023-04-03T06:54:16.552Z,5.62
2023-04-03T06:56:45.920Z,5.63
2023-04-03T06:59:14.661Z,5.70
2023-04-03T07:01:42.949Z,5.78
2023-04-03T07:04:09.867Z,5.72
2023-04-03T07:06:36.725Z,5.84
2023-04-03T07:09:07.191Z,5.86
2023-04-03T07:11:36.035Z,5.89
2023-04-03T07:14:03.909Z,6.07
2023-04-03T07:16:33.386Z,6.20
2023-04-03T07:19:02.756Z,6.13
2023-04-03T07:21:29.733Z,6.42
2023-04-03T07:23:58.896Z,6.22
2023-04-03T07:26:27.943Z,6.41
2023-04-03T07:28:57.316Z,6.52
2023-04-03T07:31:24.079Z,6.70
2023-04-03T07:33:51.364Z,6.91
2023-04-03T07:36:21.595Z,7.69
2023-04-03T07:38:48.741Z,8.21
2023-04-03T07:41:18.850Z,8.82
2023-04-03T07:43:48.230Z,9.25
2023-04-03T07:46:15.133Z,9.45
2023-04-03T07:48:42.061Z,9.95
2023-04-03T07:51:08.691Z,10.17
2023-04-03T07:53:35.402Z,10.45
2023-04-03T07:56:03.790Z,10.74
2023-04-03T07:58:31.161Z,11.03
2023-04-03T08:00:58.413Z,11.41
2023-04-03T08:03:25.613Z,11.54
2023-04-03T08:05:52.479Z,11.87
2023-04-03T08:08:22.399Z,12.15
2023-04-03T08:10:53.141Z,12.37
2023-04-03T08:13:20.486Z,13.06
2023-04-03T08:15:47.832Z,13.67
2023-04-03T08:18:15.880Z,14.25
2023-04-03T08:20:42.978Z,14.78
2023-04-03T08:23:12.236Z,15.35
2023-04-03T08:25:41.453Z,15.86
2023-04-03T08:28:11.094Z,15.86
2023-04-03T08:30:41.293Z,15.69
2023-04-03T08:33:08.444Z,15.70
2023-04-03T08:35:40.219Z,15.78
2023-04-03T08:38:07.706Z,15.94
2023-04-03T08:40:34.504Z,16.38
2023-04-03T08:43:10.487Z,16.73
2023-04-03T08:45:48.011Z,17.08
2023-04-03T08:48:24.862Z,17.36
2023-04-03T08:50:56.277Z,17.52
2023-04-03T08:53:32.229Z,17.95
2023-04-03T08:56:00.295Z,17.97
2023-04-03T08:58:35.185Z,18.06
2023-04-03T09:01:20.290Z,18.19
2023-04-03T09:03:50.059Z,18.30
2023-04-03T09:06:33.949Z,18.71
2023-04-03T09:09:35.879Z,19.03
2023-04-03T09:12:13.979Z,19.46
2023-04-03T09:15:14.342Z,19.82
2023-04-03T09:17:49.936Z,20.05
2023-04-03T09:20:54.878Z,20.28
2023-04-03T09:23:42.324Z,20.19
2023-04-03T09:26:15.774Z,19.95
2023-04-03T09:28:50.495Z,19.97
2023-04-03T09:31:17.847Z,19.75
2023-04-03T09:33:45.371Z,19.61
2023-04-03T09:36:12.853Z,19.37
2023-04-03T09:38:43.208Z,19.46
2023-04-03T09:41:24.880Z,19.62
2023-04-03T09:43:55.588Z,19.58
2023-04-03T09:46:36.033Z,19.53
2023-04-03T09:49:09.547Z,19.49
2023-04-03T09:51:39.692Z,19.38
2023-04-03T09:54:38.351Z,19.26
2023-04-03T09:57:12.997Z,18.77
2023-04-03T09:59:49.199Z,18.53
2023-04-03T10:02:29.363Z,18.15
2023-04-03T10:05:08.703Z,18.09
2023-04-03T10:07:38.444Z,17.99
2023-04-03T10:10:18.887Z,17.80
2023-04-03T10:12:45.583Z,17.65
2023-04-03T10:15:21.146Z,17.57
2023-04-03T10:17:54.740Z,17.41
2023-04-03T10:20:28.434Z,17.15
2023-04-03T10:23:17.778Z,16.85
2023-04-03T10:25:55.479Z,16.52
2023-04-03T10:28:40.936Z,16.31
2023-04-03T10:31:26.632Z,16.33
2023-04-03T10:34:20.226Z,16.48
2023-04-03T10:36:57.431Z,16.53
2023-04-03T10:39:33.161Z,16.64
2023-04-03T10:42:41.856Z,16.77
2023-04-03T10:45:22.086Z,16.92
2023-04-03T10:48:05.849Z,16.74
2023-04-03T10:50:57.387Z,16.97
2023-04-03T10:53:53.276Z,17.12
2023-04-03T10:56:31.517Z,17.49
2023-04-03T10:59:02.001Z,17.69
2023-04-03T11:01:34.813Z,17.52
2023-04-03T11:04:05.094Z,17.31
2023-04-03T11:06:40.572Z,16.89
2023-04-03T11:09:28.447Z,16.57
2023-04-03T11:12:36.708Z,16.49
2023-04-03T11:15:04.670Z,16.35
2023-04-03T11:17:48.690Z,16.40
2023-04-03T11:20:28.497Z,16.04
2023-04-03T11:23:10.987Z,15.85
2023-04-03T11:25:39.861Z,15.16
2023-04-03T11:28:18.055Z,15.27
2023-04-03T11:31:03.349Z,15.21
2023-04-03T11:33:38.043Z,15.21
2023-04-03T11:36:25.069Z,15.34
2023-04-03T11:39:00.734Z,15.30
2023-04-03T11:41:35.068Z,15.10
2023-04-03T11:44:27.136Z,15.14
2023-04-03T11:46:59.162Z,15.29
2023-04-03T11:50:01.495Z,15.45
2023-04-03T11:52:43.120Z,15.50
2023-04-03T11:55:31.101Z,15.51
2023-04-03T11:58:03.048Z,15.56
2023-04-03T12:00:47.411Z,15.63
2023-04-03T12:03:26.186Z,15.66
2023-04-03T12:05:59.089Z,15.76
2023-04-03T12:08:31.457Z,15.87
2023-04-03T12:11:10.665Z,15.94
2023-04-03T12:13:49.655Z,15.97
2023-04-03T12:16:26.259Z,15.96
2023-04-03T12:18:56.561Z,15.93
2023-04-03T12:21:35.407Z,15.94
2023-04-03T12:24:11.755Z,15.90
2023-04-03T12:26:51.904Z,15.76
2023-04-03T12:29:52.609Z,15.71
2023-04-03T12:32:41.492Z,15.57
2023-04-03T12:35:37.199Z,15.52
2023-04-03T12:38:26.406Z,15.47
2023-04-03T12:41:06.435Z,15.39
2023-04-03T12:43:51.592Z,15.33
2023-04-03T12:46:24.698Z,15.30
2023-04-03T12:49:00.635Z,15.26
2023-04-03T12:51:30.287Z,15.21
2023-04-03T12:54:14.142Z,15.15
2023-04-03T12:56:40.938Z,15.01
2023-04-03T12:59:27.894Z,14.92
2023-04-03T13:01:59.626Z,14.87
2023-04-03T13:04:31.573Z,14.76
2023-04-03T13:06:59.066Z,14.77
2023-04-03T13:09:33.640Z,14.62
2023-04-03T13:12:04.626Z,14.54
2023-04-03T13:14:32.145Z,14.46
2023-04-03T13:17:11.493Z,14.45
2023-04-03T13:19:40.620Z,14.37
2023-04-03T13:22:20.895Z,14.20
2023-04-03T13:24:52.814Z,13.97
2023-04-03T13:27:22.636Z,13.81
2023-04-03T13:30:02.992Z,13.54
2023-04-03T13:32:33.321Z,13.54
2023-04-03T13:35:15.498Z,13.43
2023-04-03T13:37:56.825Z,13.29
2023-04-03T13:40:23.937Z,13.27
2023-04-03T13:43:19.067Z,13.25
2023-04-03T13:46:06.272Z,13.22
2023-04-03T13:48:45.600Z,13.22
2023-04-03T13:51:16.227Z,13.23
2023-04-03T13:53:55.251Z,13.09
2023-04-03T13:56:43.180Z,13.02
2023-04-03T13:59:10.886Z,12.95
2023-04-03T14:02:03.626Z,12.92
2023-04-03T14:04:45.294Z,12.94
2023-04-03T14:07:14.172Z,12.92
2023-04-03T14:09:41.124Z,12.93
2023-04-03T14:12:24.273Z,12.84
2023-04-03T14:14:57.534Z,12.81
2023-04-03T14:17:27.670Z,12.88
2023-04-03T14:19:56.696Z,12.92
2023-04-03T14:22:25.143Z,12.94
2023-04-03T14:24:52.893Z,12.80
2023-04-03T14:27:21.909Z,12.96
2023-04-03T14:29:51.722Z,12.93
2023-04-03T14:32:21.419Z,12.83
2023-04-03T14:34:50.305Z,12.88
2023-04-03T14:37:20.516Z,12.83
2023-04-03T14:39:49.970Z,12.90
2023-04-03T14:42:20.789Z,12.79
2023-04-03T14:44:48.282Z,12.96
2023-04-03T14:47:29.820Z,12.86
2023-04-03T14:50:00.027Z,12.85
2023-04-03T14:52:33.059Z,12.86
2023-04-03T14:55:01.691Z,12.85
2023-04-03T14:57:32.746Z,12.83
2023-04-03T14:59:59.857Z,12.86
2023-04-03T15:02:29.735Z,12.85
2023-04-03T15:05:03.999Z,12.87
2023-04-03T15:07:34.843Z,12.76
2023-04-03T15:10:19.657Z,12.87
2023-04-03T15:12:48.227Z,12.87
2023-04-03T15:15:16.557Z,12.87
2023-04-03T15:17:44.365Z,12.84
2023-04-03T15:20:26.241Z,12.79
2023-04-03T15:22:57.323Z,12.78
2023-04-03T15:25:26.167Z,12.60
2023-04-03T15:27:56.495Z,12.49
2023-04-03T15:30:23.204Z,12.78
2023-04-03T15:32:50.471Z,12.71
2023-04-03T15:35:17.465Z,12.78
2023-04-03T15:37:46.542Z,12.64
2023-04-03T15:40:13.797Z,12.57
2023-04-03T15:42:41.046Z,12.70
2023-04-03T15:45:12.565Z,12.68
2023-04-03T15:47:39.507Z,12.66
2023-04-03T15:50:09.924Z,12.62
2023-04-03T15:52:44.423Z,12.76
2023-04-03T15:55:13.345Z,12.66
2023-04-03T16:00:10.998Z,12.72
2023-04-03T16:02:37.869Z,12.85
2023-04-03T16:05:04.957Z,12.88
2023-04-03T16:07:31.828Z,12.83
2023-04-03T16:09:58.551Z,12.69
2023-04-03T16:12:27.461Z,12.73
2023-04-03T16:14:56.161Z,12.58
2023-04-03T16:17:25.494Z,12.56
2023-04-03T16:19:52.431Z,12.64
2023-04-03T16:22:23.819Z,12.62
2023-04-03T16:24:50.827Z,12.66
2023-04-03T16:27:17.792Z,12.55
2023-04-03T16:29:46.753Z,12.58
2023-04-03T16:32:18.640Z,12.58
2023-04-03T16:34:45.421Z,12.58
2023-04-03T16:37:12.216Z,12.60
2023-04-03T16:39:39.035Z,12.53
2023-04-03T16:42:10.275Z,12.51
2023-04-03T16:44:38.069Z,12.45
2023-04-03T16:47:04.880Z,12.42
2023-04-03T16:49:35.089Z,12.36
2023-04-03T16:52:03.509Z,12.31
2023-04-03T16:54:30.616Z,12.31
2023-04-03T16:56:57.844Z,12.32
2023-04-03T16:59:24.962Z,12.22
2023-04-03T17:01:51.694Z,12.25
2023-04-03T17:04:18.392Z,12.21
2023-04-03T17:06:47.802Z,12.17
2023-04-03T17:09:14.589Z,12.16
2023-04-03T17:11:42.319Z,12.18
2023-04-03T17:14:09.790Z,12.16
2023-04-03T17:16:39.772Z,12.13
2023-04-03T17:19:06.962Z,11.99
2023-04-03T17:21:34.550Z,12.06
2023-04-03T17:24:04.568Z,11.92
2023-04-03T17:26:33.952Z,12.06
2023-04-03T17:29:01.062Z,12.00
2023-04-03T17:31:29.932Z,11.97
2023-04-03T17:33:56.673Z,12.09
2023-04-03T17:36:25.532Z,12.09
2023-04-03T17:38:54.623Z,11.97
2023-04-03T17:41:21.482Z,11.93
2023-04-03T17:43:48.198Z,11.97
2023-04-03T17:46:17.801Z,11.92
2023-04-03T17:48:44.619Z,11.77
2023-04-03T17:51:14.488Z,11.70
2023-04-03T17:53:44.546Z,11.72
2023-04-03T17:56:16.595Z,11.64
2023-04-03T17:58:44.203Z,11.61
2023-04-03T18:01:16.178Z,11.53
2023-04-03T18:03:44.061Z,11.44
2023-04-03T18:06:13.832Z,11.21
2023-04-03T18:08:47.107Z,11.35
2023-04-03T18:11:14.520Z,11.21
2023-04-03T18:13:42.335Z,11.21
2023-04-03T18:16:11.381Z,11.24
2023-04-03T18:18:38.710Z,11.22
2023-04-03T18:21:06.879Z,11.18
2023-04-03T18:23:39.140Z,11.13
2023-04-03T18:26:08.290Z,10.98
2023-04-03T18:28:35.156Z,10.99
2023-04-03T18:31:10.863Z,10.78
2023-04-03T18:33:37.744Z,10.81
2023-04-03T18:36:05.612Z,10.78
2023-04-03T18:38:32.276Z,10.67
2023-04-03T18:41:00.478Z,10.57
2023-04-03T18:43:28.176Z,10.66
2023-04-03T18:45:58.173Z,10.51
2023-04-03T18:48:27.334Z,10.57
2023-04-03T18:50:55.631Z,10.51
2023-04-03T18:53:22.861Z,10.33
2023-04-03T18:55:49.509Z,10.22
2023-04-03T18:58:16.209Z,10.24
2023-04-03T19:00:45.796Z,10.27
2023-04-03T19:03:13.612Z,10.25
2023-04-03T19:05:40.752Z,10.23
2023-04-03T19:08:07.731Z,10.20
2023-04-03T19:10:34.452Z,10.09
2023-04-03T19:13:01.129Z,10.10
2023-04-03T19:15:27.983Z,10.08
2023-04-03T19:17:54.739Z,10.07
2023-04-03T19:20:21.663Z,10.03
2023-04-03T19:22:48.323Z,9.89
2023-04-03T19:25:17.383Z,9.94
2023-04-03T19:27:44.051Z,9.93
2023-04-03T19:30:12.710Z,9.92
2023-04-03T19:32:39.623Z,9.86
2023-04-03T19:35:06.956Z,9.87
2023-04-03T19:37:33.711Z,9.83
2023-04-03T19:40:00.520Z,9.84
2023-04-03T19:42:31.467Z,9.82
2023-04-03T19:44:58.771Z,9.75
2023-04-03T19:47:25.671Z,9.70
2023-04-03T19:49:57.235Z,9.65
2023-04-03T19:52:23.861Z,9.60
2023-04-03T19:54:51.758Z,9.53
2023-04-03T19:57:19.671Z,9.39
2023-04-03T19:59:46.389Z,9.42
2023-04-03T20:02:13.088Z,9.39
2023-04-03T20:04:39.961Z,9.35
2023-04-03T20:07:06.986Z,9.27
2023-04-03T20:09:36.141Z,9.26
2023-04-03T20:12:03.026Z,9.23
2023-04-03T20:14:30.203Z,9.19
2023-04-03T20:16:59.213Z,9.15
2023-04-03T20:19:28.335Z,9.09
2023-04-03T20:21:55.100Z,8.98
2023-04-03T20:24:23.982Z,9.04
2023-04-03T20:26:50.960Z,9.00
2023-04-03T20:29:20.621Z,8.94
2023-04-03T20:31:50.049Z,8.85
2023-04-03T20:34:19.073Z,8.66
2023-04-03T20:36:49.736Z,8.75
2023-04-03T20:39:24.108Z,8.65
2023-04-03T20:41:50.929Z,8.63
2023-04-03T20:44:18.567Z,8.57
2023-04-03T20:46:52.845Z,8.39
2023-04-03T20:49:20.867Z,8.40
2023-04-03T20:51:47.778Z,8.40
2023-04-03T20:54:14.851Z,8.27
2023-04-03T20:56:41.596Z,8.30
2023-04-03T20:59:08.433Z,7.98
2023-04-03T21:01:36.151Z,8.09
2023-04-03T21:04:11.484Z,8.16
2023-04-03T21:07:18.439Z,8.12
2023-04-03T21:10:23.413Z,8.08
2023-04-03T21:13:27.863Z,8.03
2023-04-03T21:16:00.101Z,7.97
2023-04-03T21:18:53.677Z,7.93
2023-04-03T21:21:24.671Z,7.86
2023-04-03T21:23:52.723Z,7.82
2023-04-03T21:26:21.753Z,7.73
2023-04-03T21:28:50.614Z,7.72
2023-04-03T21:31:17.365Z,7.68
2023-04-03T21:33:43.997Z,7.59
2023-04-03T21:36:10.699Z,7.62
2023-04-03T21:38:37.378Z,7.43
2023-04-03T21:41:06.563Z,7.48
2023-04-03T21:43:33.506Z,7.43
2023-04-03T21:46:00.279Z,7.44
2023-04-03T21:48:30.928Z,7.41
2023-04-03T21:51:05.146Z,7.36
2023-04-03T21:53:33.752Z,7.30
2023-04-03T21:56:02.610Z,7.27
2023-04-03T21:58:33.747Z,7.19
2023-04-03T22:01:09.867Z,7.27
2023-04-03T22:03:37.171Z,7.23
2023-04-03T22:06:06.739Z,7.10
2023-04-03T22:08:36.359Z,7.17
2023-04-03T22:11:13.504Z,7.14
2023-04-03T22:13:41.381Z,7.11
2023-04-03T22:16:09.267Z,7.07
2023-04-03T22:18:36.236Z,7.05
2023-04-03T22:21:03.132Z,7.01
2023-04-03T22:23:29.890Z,6.91
2023-04-03T22:26:08.042Z,6.98
2023-04-03T22:28:42.111Z,6.91
2023-04-03T22:31:09.851Z,6.92
2023-04-03T22:33:39.476Z,6.81
2023-04-03T22:36:07.330Z,6.78
2023-04-03T22:38:35.098Z,6.79
2023-04-03T22:41:03.708Z,6.80
2023-04-03T22:43:33.155Z,6.78
2023-04-03T22:46:01.852Z,6.76
2023-04-03T22:48:30.914Z,6.72
2023-04-03T22:50:57.999Z,6.71
2023-04-03T22:53:28.189Z,6.70
2023-04-03T22:55:59.173Z,6.65
2023-04-03T22:58:30.719Z,6.62
2023-04-03T23:01:05.796Z,6.59
2023-04-03T23:03:33.006Z,6.56
2023-04-03T23:06:01.521Z,6.42
2023-04-03T23:08:28.847Z,6.34
2023-04-03T23:10:59.632Z,6.46
2023-04-03T23:13:28.775Z,6.42
2023-04-03T23:16:02.949Z,6.40
2023-04-03T23:18:30.952Z,6.31
2023-04-03T23:21:04.507Z,6.36
2023-04-03T23:23:32.007Z,6.33
2023-04-03T23:26:00.897Z,6.29
2023-04-03T23:28:28.734Z,6.28
2023-04-03T23:31:03.345Z,6.21
2023-04-03T23:33:36.397Z,6.25
2023-04-03T23:36:08.049Z,6.09
2023-04-03T23:38:37.632Z,6.20
2023-04-03T23:41:04.322Z,6.17
2023-04-03T23:43:32.103Z,6.17
2023-04-03T23:45:59.084Z,6.15
2023-04-03T23:48:26.107Z,6.13
2023-04-03T23:50:54.981Z,6.12
2023-04-03T23:53:24.088Z,5.99
2023-04-03T23:55:53.121Z,5.94
2023-04-03T23:58:21.979Z,6.04
